sensor_id;sensor_type;location;lat;lon;timestamp;temperature;humidity
40738;DHT22;54759;48.094;-1.628;2022-08-30T00:01:22;24.30;53.70
40738;DHT22;54759;48.094;-1.628;2022-08-30T00:04:24;24.60;53.80
40738;DHT22;54759;48.094;-1.628;2022-08-30T00:07:25;24.30;53.70
40738;DHT22;54759;48.094;-1.628;2022-08-30T00:10:27;24.70;53.90
40738;DHT22;54759;48.094;-1.628;2022-08-30T00:13:29;25.00;54.00
40738;DHT22;54759;48.094;-1.628;2022-08-30T00:16:34;24.60;53.80
40738;DHT22;54759;48.094;-1.628;2022-08-30T00:19:35;24.50;53.80
40738;DHT22;54759;48.094;-1.628;2022-08-30T00:22:37;24.70;53.90
40738;DHT22;54759;48.094;-1.628;2022-08-30T00:25:39;24.30;53.70
40738;DHT22;54759;48.094;-1.628;2022-08-30T00:28:41;24.90;54.10
40738;DHT22;54759;48.094;-1.628;2022-08-30T00:31:43;24.40;53.70
40738;DHT22;54759;48.094;-1.628;2022-08-30T00:34:44;24.30;53.70
40738;DHT22;54759;48.094;-1.628;2022-08-30T00:37:46;24.50;53.80
40738;DHT22;54759;48.094;-1.628;2022-08-30T00:40:48;24.50;53.80
40738;DHT22;54759;48.094;-1.628;2022-08-30T00:43:50;24.60;53.80
40738;DHT22;54759;48.094;-1.628;2022-08-30T00:46:52;24.60;53.80
40738;DHT22;54759;48.094;-1.628;2022-08-30T00:49:54;24.40;53.70
40738;DHT22;54759;48.094;-1.628;2022-08-30T00:52:57;24.50;53.80
40738;DHT22;54759;48.094;-1.628;2022-08-30T00:55:59;24.60;53.80
40738;DHT22;54759;48.094;-1.628;2022-08-30T00:59:05;24.50;53.80
40738;DHT22;54759;48.094;-1.628;2022-08-30T01:02:07;24.50;53.90
40738;DHT22;54759;48.094;-1.628;2022-08-30T01:05:10;24.50;53.80
40738;DHT22;54759;48.094;-1.628;2022-08-30T01:08:16;24.50;53.70
40738;DHT22;54759;48.094;-1.628;2022-08-30T01:11:19;24.40;53.80
40738;DHT22;54759;48.094;-1.628;2022-08-30T01:14:21;24.40;53.80
40738;DHT22;54759;48.094;-1.628;2022-08-30T01:17:26;24.40;53.80
40738;DHT22;54759;48.094;-1.628;2022-08-30T01:20:31;24.40;53.80
40738;DHT22;54759;48.094;-1.628;2022-08-30T01:23:37;24.20;53.70
40738;DHT22;54759;48.094;-1.628;2022-08-30T01:26:39;24.20;53.70
40738;DHT22;54759;48.094;-1.628;2022-08-30T01:29:44;24.40;53.80
40738;DHT22;54759;48.094;-1.628;2022-08-30T01:32:45;24.50;53.80
40738;DHT22;54759;48.094;-1.628;2022-08-30T01:35:49;24.70;53.90
40738;DHT22;54759;48.094;-1.628;2022-08-30T01:38:54;24.50;53.80
40738;DHT22;54759;48.094;-1.628;2022-08-30T01:41:56;24.70;54.10
40738;DHT22;54759;48.094;-1.628;2022-08-30T01:44:58;24.50;53.90
40738;DHT22;54759;48.094;-1.628;2022-08-30T01:47:59;24.50;53.90
40738;DHT22;54759;48.094;-1.628;2022-08-30T01:51:08;24.30;53.80
40738;DHT22;54759;48.094;-1.628;2022-08-30T01:54:10;24.80;54.00
40738;DHT22;54759;48.094;-1.628;2022-08-30T01:57:13;24.30;53.80
40738;DHT22;54759;48.094;-1.628;2022-08-30T02:00:16;24.60;53.90
40738;DHT22;54759;48.094;-1.628;2022-08-30T02:03:17;24.40;53.80
40738;DHT22;54759;48.094;-1.628;2022-08-30T02:06:20;24.50;53.90
40738;DHT22;54759;48.094;-1.628;2022-08-30T02:09:22;24.20;53.70
40738;DHT22;54759;48.094;-1.628;2022-08-30T02:12:23;24.70;54.00
40738;DHT22;54759;48.094;-1.628;2022-08-30T02:15:25;24.60;54.00
40738;DHT22;54759;48.094;-1.628;2022-08-30T02:18:27;24.50;53.90
40738;DHT22;54759;48.094;-1.628;2022-08-30T02:21:28;24.40;53.80
40738;DHT22;54759;48.094;-1.628;2022-08-30T02:24:30;24.60;54.00
40738;DHT22;54759;48.094;-1.628;2022-08-30T02:27:32;24.30;53.80
40738;DHT22;54759;48.094;-1.628;2022-08-30T02:30:33;24.40;53.80
40738;DHT22;54759;48.094;-1.628;2022-08-30T02:33:35;24.40;53.90
40738;DHT22;54759;48.094;-1.628;2022-08-30T02:36:41;24.60;54.00
40738;DHT22;54759;48.094;-1.628;2022-08-30T02:39:42;24.20;53.80
40738;DHT22;54759;48.094;-1.628;2022-08-30T02:42:47;24.40;53.90
40738;DHT22;54759;48.094;-1.628;2022-08-30T02:45:49;24.30;53.80
40738;DHT22;54759;48.094;-1.628;2022-08-30T02:48:50;24.60;54.00
40738;DHT22;54759;48.094;-1.628;2022-08-30T02:51:52;24.30;53.80
40738;DHT22;54759;48.094;-1.628;2022-08-30T02:54:54;24.60;54.00
40738;DHT22;54759;48.094;-1.628;2022-08-30T02:57:55;24.30;54.20
40738;DHT22;54759;48.094;-1.628;2022-08-30T03:00:56;24.60;54.00
40738;DHT22;54759;48.094;-1.628;2022-08-30T03:04:01;24.40;53.90
40738;DHT22;54759;48.094;-1.628;2022-08-30T03:07:02;24.60;54.00
40738;DHT22;54759;48.094;-1.628;2022-08-30T03:10:05;24.30;53.90
40738;DHT22;54759;48.094;-1.628;2022-08-30T03:13:10;24.30;53.80
40738;DHT22;54759;48.094;-1.628;2022-08-30T03:16:12;24.20;53.80
40738;DHT22;54759;48.094;-1.628;2022-08-30T03:19:16;24.50;53.90
40738;DHT22;54759;48.094;-1.628;2022-08-30T03:22:18;24.50;53.90
40738;DHT22;54759;48.094;-1.628;2022-08-30T03:25:20;24.30;53.80
40738;DHT22;54759;48.094;-1.628;2022-08-30T03:28:21;24.30;53.80
40738;DHT22;54759;48.094;-1.628;2022-08-30T03:31:22;24.50;54.00
40738;DHT22;54759;48.094;-1.628;2022-08-30T03:34:24;24.30;53.90
40738;DHT22;54759;48.094;-1.628;2022-08-30T03:37:26;24.50;54.00
40738;DHT22;54759;48.094;-1.628;2022-08-30T03:40:28;24.50;53.90
40738;DHT22;54759;48.094;-1.628;2022-08-30T03:43:31;24.60;54.00
40738;DHT22;54759;48.094;-1.628;2022-08-30T03:46:33;24.30;53.80
40738;DHT22;54759;48.094;-1.628;2022-08-30T03:49:38;24.40;53.90
40738;DHT22;54759;48.094;-1.628;2022-08-30T03:52:39;24.20;53.80
40738;DHT22;54759;48.094;-1.628;2022-08-30T03:55:41;24.50;53.90
40738;DHT22;54759;48.094;-1.628;2022-08-30T03:58:43;24.20;53.80
40738;DHT22;54759;48.094;-1.628;2022-08-30T04:01:44;24.50;53.90
40738;DHT22;54759;48.094;-1.628;2022-08-30T04:04:48;24.30;53.80
40738;DHT22;54759;48.094;-1.628;2022-08-30T04:07:50;24.50;53.90
40738;DHT22;54759;48.094;-1.628;2022-08-30T04:10:52;24.40;53.70
40738;DHT22;54759;48.094;-1.628;2022-08-30T04:13:57;24.20;53.70
40738;DHT22;54759;48.094;-1.628;2022-08-30T04:16:58;24.60;53.90
40738;DHT22;54759;48.094;-1.628;2022-08-30T04:20:02;24.60;53.90
40738;DHT22;54759;48.094;-1.628;2022-08-30T04:23:04;24.10;53.60
40738;DHT22;54759;48.094;-1.628;2022-08-30T04:26:07;24.50;53.80
40738;DHT22;54759;48.094;-1.628;2022-08-30T04:29:09;24.50;53.80
40738;DHT22;54759;48.094;-1.628;2022-08-30T04:32:12;24.60;53.80
40738;DHT22;54759;48.094;-1.628;2022-08-30T04:35:13;24.20;53.70
40738;DHT22;54759;48.094;-1.628;2022-08-30T04:38:15;24.60;53.90
40738;DHT22;54759;48.094;-1.628;2022-08-30T04:41:17;24.30;53.60
40738;DHT22;54759;48.094;-1.628;2022-08-30T04:44:22;24.20;53.60
40738;DHT22;54759;48.094;-1.628;2022-08-30T04:47:25;24.30;53.60
40738;DHT22;54759;48.094;-1.628;2022-08-30T04:50:27;24.40;53.70
40738;DHT22;54759;48.094;-1.628;2022-08-30T04:53:28;24.20;53.70
40738;DHT22;54759;48.094;-1.628;2022-08-30T04:56:30;24.40;53.80
40738;DHT22;54759;48.094;-1.628;2022-08-30T04:59:33;24.20;53.70
40738;DHT22;54759;48.094;-1.628;2022-08-30T05:02:34;24.30;53.80
40738;DHT22;54759;48.094;-1.628;2022-08-30T05:05:36;24.10;53.70
40738;DHT22;54759;48.094;-1.628;2022-08-30T05:08:40;24.30;53.80
40738;DHT22;54759;48.094;-1.628;2022-08-30T05:11:47;24.40;53.80
40738;DHT22;54759;48.094;-1.628;2022-08-30T05:14:49;24.30;53.80
40738;DHT22;54759;48.094;-1.628;2022-08-30T05:17:50;24.00;53.70
40738;DHT22;54759;48.094;-1.628;2022-08-30T05:21:01;24.50;54.20
40738;DHT22;54759;48.094;-1.628;2022-08-30T05:24:03;24.30;53.90
40738;DHT22;54759;48.094;-1.628;2022-08-30T05:27:05;24.20;53.80
40738;DHT22;54759;48.094;-1.628;2022-08-30T05:30:06;24.10;53.70
40738;DHT22;54759;48.094;-1.628;2022-08-30T05:33:08;24.10;53.70
40738;DHT22;54759;48.094;-1.628;2022-08-30T05:36:13;24.20;53.80
40738;DHT22;54759;48.094;-1.628;2022-08-30T05:39:14;24.30;53.90
40738;DHT22;54759;48.094;-1.628;2022-08-30T05:42:22;24.20;53.80
40738;DHT22;54759;48.094;-1.628;2022-08-30T05:45:23;24.20;53.80
40738;DHT22;54759;48.094;-1.628;2022-08-30T05:48:24;24.00;53.70
40738;DHT22;54759;48.094;-1.628;2022-08-30T05:51:26;24.40;53.90
40738;DHT22;54759;48.094;-1.628;2022-08-30T05:54:28;24.30;53.90
40738;DHT22;54759;48.094;-1.628;2022-08-30T05:57:31;24.30;53.90
40738;DHT22;54759;48.094;-1.628;2022-08-30T06:00:36;24.00;53.70
40738;DHT22;54759;48.094;-1.628;2022-08-30T06:03:37;24.30;53.90
40738;DHT22;54759;48.094;-1.628;2022-08-30T06:06:39;24.20;53.80
40738;DHT22;54759;48.094;-1.628;2022-08-30T06:09:41;24.50;54.00
40738;DHT22;54759;48.094;-1.628;2022-08-30T06:12:43;24.20;53.90
40738;DHT22;54759;48.094;-1.628;2022-08-30T06:15:44;24.10;54.00
40738;DHT22;54759;48.094;-1.628;2022-08-30T06:18:46;23.80;54.00
40738;DHT22;54759;48.094;-1.628;2022-08-30T06:21:48;24.10;54.40
40738;DHT22;54759;48.094;-1.628;2022-08-30T06:24:50;24.00;54.30
40738;DHT22;54759;48.094;-1.628;2022-08-30T06:27:59;23.80;54.30
40738;DHT22;54759;48.094;-1.628;2022-08-30T06:31:00;23.80;54.40
40738;DHT22;54759;48.094;-1.628;2022-08-30T06:34:02;24.00;54.50
40738;DHT22;54759;48.094;-1.628;2022-08-30T06:37:03;23.90;54.50
40738;DHT22;54759;48.094;-1.628;2022-08-30T06:40:05;23.70;54.40
40738;DHT22;54759;48.094;-1.628;2022-08-30T06:43:07;23.80;54.50
40738;DHT22;54759;48.094;-1.628;2022-08-30T06:46:10;23.90;54.60
40738;DHT22;54759;48.094;-1.628;2022-08-30T06:49:11;23.80;54.60
40738;DHT22;54759;48.094;-1.628;2022-08-30T06:52:17;23.70;54.50
40738;DHT22;54759;48.094;-1.628;2022-08-30T06:55:19;23.80;54.50
40738;DHT22;54759;48.094;-1.628;2022-08-30T06:58:22;23.90;54.50
40738;DHT22;54759;48.094;-1.628;2022-08-30T07:01:23;23.90;54.40
40738;DHT22;54759;48.094;-1.628;2022-08-30T07:04:25;23.80;54.20
40738;DHT22;54759;48.094;-1.628;2022-08-30T07:07:27;23.90;54.20
40738;DHT22;54759;48.094;-1.628;2022-08-30T07:10:29;23.80;54.30
40738;DHT22;54759;48.094;-1.628;2022-08-30T07:13:32;23.90;54.30
40738;DHT22;54759;48.094;-1.628;2022-08-30T07:16:33;23.80;54.10
40738;DHT22;54759;48.094;-1.628;2022-08-30T07:19:35;23.90;54.20
40738;DHT22;54759;48.094;-1.628;2022-08-30T07:22:36;24.10;54.10
40738;DHT22;54759;48.094;-1.628;2022-08-30T07:25:38;24.00;54.00
40738;DHT22;54759;48.094;-1.628;2022-08-30T07:28:42;23.70;53.70
40738;DHT22;54759;48.094;-1.628;2022-08-30T07:31:43;24.00;53.90
40738;DHT22;54759;48.094;-1.628;2022-08-30T07:34:46;24.00;53.80
40738;DHT22;54759;48.094;-1.628;2022-08-30T07:37:52;24.00;53.80
40738;DHT22;54759;48.094;-1.628;2022-08-30T07:40:53;24.10;53.90
40738;DHT22;54759;48.094;-1.628;2022-08-30T07:43:56;24.00;53.80
40738;DHT22;54759;48.094;-1.628;2022-08-30T07:46:57;24.10;53.80
40738;DHT22;54759;48.094;-1.628;2022-08-30T07:49:58;24.00;53.70
40738;DHT22;54759;48.094;-1.628;2022-08-30T07:53:00;23.80;53.60
40738;DHT22;54759;48.094;-1.628;2022-08-30T07:56:02;24.10;53.60
40738;DHT22;54759;48.094;-1.628;2022-08-30T07:59:06;24.10;53.50
40738;DHT22;54759;48.094;-1.628;2022-08-30T08:02:07;24.10;53.40
40738;DHT22;54759;48.094;-1.628;2022-08-30T08:05:09;24.20;53.50
40738;DHT22;54759;48.094;-1.628;2022-08-30T08:08:17;24.20;53.40
40738;DHT22;54759;48.094;-1.628;2022-08-30T08:11:20;24.20;53.40
40738;DHT22;54759;48.094;-1.628;2022-08-30T08:14:22;24.30;53.50
40738;DHT22;54759;48.094;-1.628;2022-08-30T08:17:23;23.80;53.10
40738;DHT22;54759;48.094;-1.628;2022-08-30T08:20:26;24.20;53.30
40738;DHT22;54759;48.094;-1.628;2022-08-30T08:23:27;24.30;53.40
40738;DHT22;54759;48.094;-1.628;2022-08-30T08:26:29;24.10;53.20
40738;DHT22;54759;48.094;-1.628;2022-08-30T08:29:31;24.30;53.20
40738;DHT22;54759;48.094;-1.628;2022-08-30T08:32:32;24.30;53.20
40738;DHT22;54759;48.094;-1.628;2022-08-30T08:35:34;24.20;53.10
40738;DHT22;54759;48.094;-1.628;2022-08-30T08:38:35;24.50;53.30
40738;DHT22;54759;48.094;-1.628;2022-08-30T08:41:40;24.40;53.20
40738;DHT22;54759;48.094;-1.628;2022-08-30T08:44:48;24.40;53.10
40738;DHT22;54759;48.094;-1.628;2022-08-30T08:47:56;24.50;53.20
40738;DHT22;54759;48.094;-1.628;2022-08-30T08:51:02;24.40;53.10
40738;DHT22;54759;48.094;-1.628;2022-08-30T08:54:18;24.50;53.10
40738;DHT22;54759;48.094;-1.628;2022-08-30T08:57:21;24.40;53.00
40738;DHT22;54759;48.094;-1.628;2022-08-30T09:00:26;24.40;53.10
40738;DHT22;54759;48.094;-1.628;2022-08-30T09:03:29;24.50;53.00
40738;DHT22;54759;48.094;-1.628;2022-08-30T09:06:37;24.50;52.80
40738;DHT22;54759;48.094;-1.628;2022-08-30T09:09:46;24.60;52.80
40738;DHT22;54759;48.094;-1.628;2022-08-30T09:12:50;24.50;52.70
40738;DHT22;54759;48.094;-1.628;2022-08-30T09:15:53;24.50;52.70
40738;DHT22;54759;48.094;-1.628;2022-08-30T09:18:56;24.50;52.60
40738;DHT22;54759;48.094;-1.628;2022-08-30T09:21:58;24.60;52.60
40738;DHT22;54759;48.094;-1.628;2022-08-30T09:25:02;24.70;52.60
40738;DHT22;54759;48.094;-1.628;2022-08-30T09:28:08;24.90;52.80
40738;DHT22;54759;48.094;-1.628;2022-08-30T09:31:17;24.80;52.60
40738;DHT22;54759;48.094;-1.628;2022-08-30T09:34:20;24.90;52.60
40738;DHT22;54759;48.094;-1.628;2022-08-30T09:37:23;24.70;52.30
40738;DHT22;54759;48.094;-1.628;2022-08-30T09:40:27;24.80;52.30
40738;DHT22;54759;48.094;-1.628;2022-08-30T09:43:30;24.90;52.30
40738;DHT22;54759;48.094;-1.628;2022-08-30T09:46:32;24.80;52.10
40738;DHT22;54759;48.094;-1.628;2022-08-30T09:49:35;24.90;52.20
40738;DHT22;54759;48.094;-1.628;2022-08-30T09:52:39;25.10;52.30
40738;DHT22;54759;48.094;-1.628;2022-08-30T09:55:46;25.00;52.20
40738;DHT22;54759;48.094;-1.628;2022-08-30T09:58:56;25.00;52.20
40738;DHT22;54759;48.094;-1.628;2022-08-30T10:02:01;24.90;52.10
40738;DHT22;54759;48.094;-1.628;2022-08-30T10:05:04;25.20;52.50
40738;DHT22;54759;48.094;-1.628;2022-08-30T10:08:11;24.80;52.10
40738;DHT22;54759;48.094;-1.628;2022-08-30T10:11:19;25.00;52.10
40738;DHT22;54759;48.094;-1.628;2022-08-30T10:17:40;25.10;52.20
40738;DHT22;54759;48.094;-1.628;2022-08-30T10:20:46;25.10;52.20
40738;DHT22;54759;48.094;-1.628;2022-08-30T10:23:50;25.10;52.20
40738;DHT22;54759;48.094;-1.628;2022-08-30T10:26:54;25.10;52.20
40738;DHT22;54759;48.094;-1.628;2022-08-30T10:29:59;25.10;52.10
40738;DHT22;54759;48.094;-1.628;2022-08-30T10:33:04;25.30;52.20
40738;DHT22;54759;48.094;-1.628;2022-08-30T10:36:08;25.10;52.10
40738;DHT22;54759;48.094;-1.628;2022-08-30T10:39:13;25.10;52.10
40738;DHT22;54759;48.094;-1.628;2022-08-30T10:42:20;25.40;52.30
40738;DHT22;54759;48.094;-1.628;2022-08-30T10:45:23;25.20;52.20
40738;DHT22;54759;48.094;-1.628;2022-08-30T10:48:27;25.20;52.10
40738;DHT22;54759;48.094;-1.628;2022-08-30T10:51:39;25.30;52.20
40738;DHT22;54759;48.094;-1.628;2022-08-30T10:54:42;25.00;52.00
40738;DHT22;54759;48.094;-1.628;2022-08-30T10:57:47;25.20;52.10
40738;DHT22;54759;48.094;-1.628;2022-08-30T11:00:56;25.20;52.10
40738;DHT22;54759;48.094;-1.628;2022-08-30T11:07:20;25.30;52.10
40738;DHT22;54759;48.094;-1.628;2022-08-30T11:10:31;25.10;52.00
40738;DHT22;54759;48.094;-1.628;2022-08-30T11:13:36;25.30;52.10
40738;DHT22;54759;48.094;-1.628;2022-08-30T11:16:39;25.20;52.20
40738;DHT22;54759;48.094;-1.628;2022-08-30T11:19:43;25.40;52.30
40738;DHT22;54759;48.094;-1.628;2022-08-30T11:25:57;25.30;52.20
40738;DHT22;54759;48.094;-1.628;2022-08-30T11:29:03;25.30;52.10
40738;DHT22;54759;48.094;-1.628;2022-08-30T11:38:56;25.40;52.00
40738;DHT22;54759;48.094;-1.628;2022-08-30T11:42:09;25.30;51.90
40738;DHT22;54759;48.094;-1.628;2022-08-30T11:51:59;25.50;52.00
40738;DHT22;54759;48.094;-1.628;2022-08-30T11:55:25;25.50;51.90
40738;DHT22;54759;48.094;-1.628;2022-08-30T11:58:31;25.60;52.00
40738;DHT22;54759;48.094;-1.628;2022-08-30T12:01:37;25.40;51.90
40738;DHT22;54759;48.094;-1.628;2022-08-30T12:04:51;25.60;52.10
40738;DHT22;54759;48.094;-1.628;2022-08-30T12:07:57;25.50;52.00
40738;DHT22;54759;48.094;-1.628;2022-08-30T12:10:59;25.30;51.90
40738;DHT22;54759;48.094;-1.628;2022-08-30T12:14:03;25.60;52.10
40738;DHT22;54759;48.094;-1.628;2022-08-30T12:17:11;25.50;52.00
40738;DHT22;54759;48.094;-1.628;2022-08-30T12:20:27;25.50;52.00
40738;DHT22;54759;48.094;-1.628;2022-08-30T12:23:33;25.20;51.80
40738;DHT22;54759;48.094;-1.628;2022-08-30T12:26:36;25.30;51.80
40738;DHT22;54759;48.094;-1.628;2022-08-30T12:29:48;25.50;52.00
40738;DHT22;54759;48.094;-1.628;2022-08-30T12:32:50;25.60;52.10
40738;DHT22;54759;48.094;-1.628;2022-08-30T12:35:52;25.50;52.00
40738;DHT22;54759;48.094;-1.628;2022-08-30T12:39:03;25.70;52.20
40738;DHT22;54759;48.094;-1.628;2022-08-30T12:42:10;25.60;52.10
40738;DHT22;54759;48.094;-1.628;2022-08-30T12:45:20;25.60;52.10
40738;DHT22;54759;48.094;-1.628;2022-08-30T12:48:25;25.70;52.40
40738;DHT22;54759;48.094;-1.628;2022-08-30T12:51:36;25.70;52.30
40738;DHT22;54759;48.094;-1.628;2022-08-30T12:54:38;25.60;52.10
40738;DHT22;54759;48.094;-1.628;2022-08-30T12:57:43;25.60;52.20
40738;DHT22;54759;48.094;-1.628;2022-08-30T13:04:20;25.50;52.10
40738;DHT22;54759;48.094;-1.628;2022-08-30T13:07:23;25.60;52.20
40738;DHT22;54759;48.094;-1.628;2022-08-30T13:10:24;25.70;52.40
40738;DHT22;54759;48.094;-1.628;2022-08-30T13:13:29;25.40;52.10
40738;DHT22;54759;48.094;-1.628;2022-08-30T13:16:34;25.60;52.30
40738;DHT22;54759;48.094;-1.628;2022-08-30T13:19:39;25.50;52.20
40738;DHT22;54759;48.094;-1.628;2022-08-30T13:22:41;25.70;52.40
40738;DHT22;54759;48.094;-1.628;2022-08-30T13:26:01;25.60;52.40
40738;DHT22;54759;48.094;-1.628;2022-08-30T13:29:04;25.50;52.40
40738;DHT22;54759;48.094;-1.628;2022-08-30T13:32:11;25.60;52.40
40738;DHT22;54759;48.094;-1.628;2022-08-30T13:35:14;25.50;52.40
40738;DHT22;54759;48.094;-1.628;2022-08-30T13:38:15;25.60;52.50
40738;DHT22;54759;48.094;-1.628;2022-08-30T13:41:17;25.60;52.40
40738;DHT22;54759;48.094;-1.628;2022-08-30T13:44:20;25.50;52.40
40738;DHT22;54759;48.094;-1.628;2022-08-30T13:47:22;25.50;52.40
40738;DHT22;54759;48.094;-1.628;2022-08-30T13:50:40;25.70;52.50
40738;DHT22;54759;48.094;-1.628;2022-08-30T13:53:42;25.50;52.40
40738;DHT22;54759;48.094;-1.628;2022-08-30T13:56:59;25.50;52.40
40738;DHT22;54759;48.094;-1.628;2022-08-30T14:00:03;25.60;52.50
40738;DHT22;54759;48.094;-1.628;2022-08-30T14:03:12;25.50;52.40
40738;DHT22;54759;48.094;-1.628;2022-08-30T14:06:15;25.50;52.60
40738;DHT22;54759;48.094;-1.628;2022-08-30T14:09:35;25.50;52.50
40738;DHT22;54759;48.094;-1.628;2022-08-30T14:12:36;25.50;52.50
40738;DHT22;54759;48.094;-1.628;2022-08-30T14:15:54;25.40;52.40
40738;DHT22;54759;48.094;-1.628;2022-08-30T14:19:16;25.60;52.50
40738;DHT22;54759;48.094;-1.628;2022-08-30T14:22:19;25.60;52.50
40738;DHT22;54759;48.094;-1.628;2022-08-30T14:25:21;25.80;52.70
40738;DHT22;54759;48.094;-1.628;2022-08-30T14:28:23;25.70;52.70
40738;DHT22;54759;48.094;-1.628;2022-08-30T14:31:27;25.60;52.50
40738;DHT22;54759;48.094;-1.628;2022-08-30T14:34:30;25.60;52.60
40738;DHT22;54759;48.094;-1.628;2022-08-30T14:37:34;25.50;52.60
40738;DHT22;54759;48.094;-1.628;2022-08-30T14:40:35;25.40;52.50
40738;DHT22;54759;48.094;-1.628;2022-08-30T14:43:37;25.60;52.70
40738;DHT22;54759;48.094;-1.628;2022-08-30T14:46:40;25.60;52.60
40738;DHT22;54759;48.094;-1.628;2022-08-30T14:49:42;25.50;52.60
40738;DHT22;54759;48.094;-1.628;2022-08-30T14:52:45;25.40;52.50
40738;DHT22;54759;48.094;-1.628;2022-08-30T14:55:46;25.60;52.60
40738;DHT22;54759;48.094;-1.628;2022-08-30T14:58:48;25.50;52.60
40738;DHT22;54759;48.094;-1.628;2022-08-30T15:01:50;25.50;52.70
40738;DHT22;54759;48.094;-1.628;2022-08-30T15:04:51;25.70;52.70
40738;DHT22;54759;48.094;-1.628;2022-08-30T15:07:54;25.60;52.60
40738;DHT22;54759;48.094;-1.628;2022-08-30T15:10:56;25.60;52.60
40738;DHT22;54759;48.094;-1.628;2022-08-30T15:13:58;25.50;52.60
40738;DHT22;54759;48.094;-1.628;2022-08-30T15:17:02;25.30;52.50
40738;DHT22;54759;48.094;-1.628;2022-08-30T15:20:04;25.70;52.70
40738;DHT22;54759;48.094;-1.628;2022-08-30T15:23:11;25.60;52.70
40738;DHT22;54759;48.094;-1.628;2022-08-30T15:26:17;25.50;52.60
40738;DHT22;54759;48.094;-1.628;2022-08-30T15:29:19;25.70;52.80
40738;DHT22;54759;48.094;-1.628;2022-08-30T15:32:21;25.70;52.70
40738;DHT22;54759;48.094;-1.628;2022-08-30T15:35:22;25.60;52.70
40738;DHT22;54759;48.094;-1.628;2022-08-30T15:38:24;25.60;52.80
40738;DHT22;54759;48.094;-1.628;2022-08-30T15:41:27;25.60;52.70
40738;DHT22;54759;48.094;-1.628;2022-08-30T15:44:29;25.60;52.70
40738;DHT22;54759;48.094;-1.628;2022-08-30T15:47:30;25.80;52.80
40738;DHT22;54759;48.094;-1.628;2022-08-30T15:50:32;25.70;52.70
40738;DHT22;54759;48.094;-1.628;2022-08-30T15:53:37;25.80;53.00
40738;DHT22;54759;48.094;-1.628;2022-08-30T15:56:38;25.60;52.70
40738;DHT22;54759;48.094;-1.628;2022-08-30T15:59:40;25.80;52.90
40738;DHT22;54759;48.094;-1.628;2022-08-30T16:02:41;25.70;52.70
40738;DHT22;54759;48.094;-1.628;2022-08-30T16:05:44;25.70;52.70
40738;DHT22;54759;48.094;-1.628;2022-08-30T16:08:46;25.70;52.70
40738;DHT22;54759;48.094;-1.628;2022-08-30T16:11:48;25.60;52.70
40738;DHT22;54759;48.094;-1.628;2022-08-30T16:14:50;25.50;52.60
40738;DHT22;54759;48.094;-1.628;2022-08-30T16:17:51;25.50;52.60
40738;DHT22;54759;48.094;-1.628;2022-08-30T16:21:03;25.60;52.70
40738;DHT22;54759;48.094;-1.628;2022-08-30T16:24:06;25.60;52.70
40738;DHT22;54759;48.094;-1.628;2022-08-30T16:27:11;25.50;52.60
40738;DHT22;54759;48.094;-1.628;2022-08-30T16:30:13;25.70;52.70
40738;DHT22;54759;48.094;-1.628;2022-08-30T16:33:15;25.90;52.90
40738;DHT22;54759;48.094;-1.628;2022-08-30T16:36:17;25.60;52.70
40738;DHT22;54759;48.094;-1.628;2022-08-30T16:39:22;25.60;52.70
40738;DHT22;54759;48.094;-1.628;2022-08-30T16:42:24;25.50;52.70
40738;DHT22;54759;48.094;-1.628;2022-08-30T16:45:25;25.70;52.70
40738;DHT22;54759;48.094;-1.628;2022-08-30T16:48:33;25.70;52.90
40738;DHT22;54759;48.094;-1.628;2022-08-30T16:51:36;25.70;52.80
40738;DHT22;54759;48.094;-1.628;2022-08-30T16:54:39;25.80;52.80
40738;DHT22;54759;48.094;-1.628;2022-08-30T16:57:41;25.70;52.70
40738;DHT22;54759;48.094;-1.628;2022-08-30T17:00:46;25.70;53.30
40738;DHT22;54759;48.094;-1.628;2022-08-30T17:03:48;25.70;52.70
40738;DHT22;54759;48.094;-1.628;2022-08-30T17:06:51;25.70;52.80
40738;DHT22;54759;48.094;-1.628;2022-08-30T17:09:53;25.70;52.70
40738;DHT22;54759;48.094;-1.628;2022-08-30T17:12:54;25.50;52.60
40738;DHT22;54759;48.094;-1.628;2022-08-30T17:15:56;25.70;52.70
40738;DHT22;54759;48.094;-1.628;2022-08-30T17:18:59;25.70;52.70
40738;DHT22;54759;48.094;-1.628;2022-08-30T17:22:01;25.70;52.70
40738;DHT22;54759;48.094;-1.628;2022-08-30T17:25:03;25.70;52.70
40738;DHT22;54759;48.094;-1.628;2022-08-30T17:28:05;25.80;52.90
40738;DHT22;54759;48.094;-1.628;2022-08-30T17:31:08;25.60;52.70
40738;DHT22;54759;48.094;-1.628;2022-08-30T17:34:10;25.70;52.70
40738;DHT22;54759;48.094;-1.628;2022-08-30T17:37:13;25.70;52.70
40738;DHT22;54759;48.094;-1.628;2022-08-30T17:40:19;26.10;53.00
40738;DHT22;54759;48.094;-1.628;2022-08-30T17:43:20;25.70;52.70
40738;DHT22;54759;48.094;-1.628;2022-08-30T17:46:22;25.70;52.80
40738;DHT22;54759;48.094;-1.628;2022-08-30T17:49:26;25.80;52.80
40738;DHT22;54759;48.094;-1.628;2022-08-30T17:52:27;25.80;52.90
40738;DHT22;54759;48.094;-1.628;2022-08-30T17:55:32;25.80;52.80
40738;DHT22;54759;48.094;-1.628;2022-08-30T17:58:34;25.80;52.80
40738;DHT22;54759;48.094;-1.628;2022-08-30T18:01:35;25.60;52.80
40738;DHT22;54759;48.094;-1.628;2022-08-30T18:04:37;25.60;52.70
40738;DHT22;54759;48.094;-1.628;2022-08-30T18:07:38;25.80;52.80
40738;DHT22;54759;48.094;-1.628;2022-08-30T18:10:41;25.70;52.80
40738;DHT22;54759;48.094;-1.628;2022-08-30T18:13:43;25.50;52.70
40738;DHT22;54759;48.094;-1.628;2022-08-30T18:16:45;25.80;52.90
40738;DHT22;54759;48.094;-1.628;2022-08-30T18:20:06;25.80;52.90
40738;DHT22;54759;48.094;-1.628;2022-08-30T18:23:12;25.70;52.90
40738;DHT22;54759;48.094;-1.628;2022-08-30T18:26:14;25.70;52.90
40738;DHT22;54759;48.094;-1.628;2022-08-30T18:29:18;25.40;52.70
40738;DHT22;54759;48.094;-1.628;2022-08-30T18:32:30;25.60;52.80
40738;DHT22;54759;48.094;-1.628;2022-08-30T18:35:36;25.40;52.80
40738;DHT22;54759;48.094;-1.628;2022-08-30T18:38:43;25.50;52.90
40738;DHT22;54759;48.094;-1.628;2022-08-30T18:41:45;25.50;52.90
40738;DHT22;54759;48.094;-1.628;2022-08-30T18:44:50;25.50;52.90
40738;DHT22;54759;48.094;-1.628;2022-08-30T18:47:53;25.70;53.10
40738;DHT22;54759;48.094;-1.628;2022-08-30T18:50:55;25.60;53.10
40738;DHT22;54759;48.094;-1.628;2022-08-30T18:53:56;25.60;53.10
40738;DHT22;54759;48.094;-1.628;2022-08-30T18:56:59;25.40;53.00
40738;DHT22;54759;48.094;-1.628;2022-08-30T19:00:00;25.60;53.10
40738;DHT22;54759;48.094;-1.628;2022-08-30T19:03:03;25.50;53.00
40738;DHT22;54759;48.094;-1.628;2022-08-30T19:06:05;25.50;53.10
40738;DHT22;54759;48.094;-1.628;2022-08-30T19:09:07;25.50;53.10
40738;DHT22;54759;48.094;-1.628;2022-08-30T19:12:10;25.70;53.20
40738;DHT22;54759;48.094;-1.628;2022-08-30T19:15:12;25.30;53.00
40738;DHT22;54759;48.094;-1.628;2022-08-30T19:18:14;25.40;53.10
40738;DHT22;54759;48.094;-1.628;2022-08-30T19:21:18;25.30;53.10
40738;DHT22;54759;48.094;-1.628;2022-08-30T19:24:21;25.50;53.20
40738;DHT22;54759;48.094;-1.628;2022-08-30T19:27:23;25.30;53.10